METAR Data
IDs: Format: Raw Decoded Include TAF

Data at: 0439 UTC 26 Sep 2018

KHRI 260353Z AUTO 18006KT 10SM CLR 12/03 A3018 RMK AO2 SLP220 T01170033
KHRI 260253Z AUTO 04005KT 10SM CLR 16/04 A3017 RMK AO2 SLP217 T01560044 55001
KHRI 260153Z AUTO 04007KT 10SM CLR 19/03 A3017 RMK AO2 SLP216 T01940028
KHRI 260053Z AUTO 04006KT 10SM CLR 24/02 A3017 RMK AO2 SLP216 T02390022
KHRI 252353Z AUTO 05008KT 10SM CLR 26/01 A3018 RMK AO2 SLP217 T02560011 10261 20161 56014
KHRI 252253Z AUTO 04008KT 10SM CLR 26/02 A3018 RMK AO2 SLP218 T02560017
KHRI 252153Z AUTO 03010KT 10SM CLR 26/03 A3020 RMK AO2 SLP224 T02560033
KHRI 252053Z AUTO 03007KT 10SM CLR 24/03 A3022 RMK AO2 SLP231 T02440033 58019
KHRI 251953Z AUTO VRB05KT 10SM CLR 22/04 A3024 RMK AO2 SLP239 T02220039
KHRI 251853Z AUTO 31004KT 10SM CLR 19/04 A3026 RMK AO2 SLP246 T01940044
KHRI 251753Z AUTO 01003KT 10SM CLR 16/03 A3027 RMK AO2 SLP250 T01610033 10167 20028 57001
KHRI 251653Z AUTO 00000KT 10SM CLR 13/03 A3027 RMK AO2 SLP252 T01280028
KHRI 251553Z AUTO 29004KT 10SM CLR 10/03 A3027 RMK AO2 SLP252 T01000033
KHRI 251453Z AUTO 16004KT 10SM CLR 07/02 A3028 RMK AO2 SLP252 T00670017 53007
KHRI 251353Z AUTO 00000KT 10SM CLR 03/00 A3027 RMK AO2 SLP251 T00330000
KHRI 251253Z AUTO 16005KT 10SM CLR 04/00 A3026 RMK AO2 SLP244 T00390000
KHRI 251153Z AUTO 00000KT 10SM CLR 03/01 A3025 RMK AO2 SLP244 T00330006 10117 20033 53008
KHRI 251053Z AUTO 13003KT 10SM CLR 05/01 A3024 RMK AO2 SLP240 T00500011
KHRI 250953Z AUTO 15003KT 10SM CLR 06/02 A3024 RMK AO2 SLP238 T00610017
KHRI 250853Z AUTO 13003KT 10SM CLR 06/01 A3023 RMK AO2 SLP236 T00560011 51004
KHRI 250753Z AUTO 00000KT 10SM CLR 06/01 A3023 RMK AO2 SLP236 T00610006 402220017
KHRI 250653Z AUTO 11003KT 10SM CLR 07/02 A3022 RMK AO2 SLP232 T00720017
KHRI 250553Z AUTO 13003KT 10SM CLR 12/02 A3022 RMK AO2 SLP231 T01170022 10217 20094 53011
KHRI 250453Z AUTO 17006KT 10SM CLR 10/02 A3020 RMK AO2 SLP226 T01000022
KHRI 250353Z AUTO 18005KT 10SM CLR 12/04 A3019 RMK AO2 SLP223 T01170039
KHRI 250253Z AUTO 16005KT 10SM CLR 14/03 A3018 RMK AO2 SLP221 T01390033 53004
KHRI 250153Z AUTO 15003KT 10SM CLR 17/04 A3019 RMK AO2 SLP221 T01720044
KHRI 250053Z AUTO 00000KT 10SM CLR 21/03 A3017 RMK AO2 SLP215 T02110033
KHRI 242353Z AUTO 00000KT 10SM CLR 21/03 A3017 RMK AO2 SLP216 T02110028 10222 20156 56007
KHRI 242253Z AUTO 00000KT 10SM CLR 22/03 A3017 RMK AO2 SLP217 T02170028
KHRI 242153Z AUTO 36005KT 10SM CLR 22/03 A3018 RMK AO2 SLP220 T02170028
KHRI 242053Z AUTO VRB06KT 10SM CLR 20/03 A3019 RMK AO2 SLP223 T02000028 58013
KHRI 241953Z AUTO 00000KT 10SM CLR 19/03 A3021 RMK AO2 SLP229 T01890028
KHRI 241853Z AUTO VRB04KT 10SM CLR 17/03 A3022 RMK AO2 SLP233 T01720033
KHRI 241753Z AUTO 32006KT 10SM CLR 16/04 A3023 RMK AO2 SLP236 T01560044 10156 20017 53011
KHRI 241653Z AUTO 30006KT 10SM CLR 13/04 A3022 RMK AO2 SLP231 T01330044